Time;durP1;ratioP1;P1;durP2;ratioP2;P2;SDS_P1;SDS_P2;PMS_P1;PMS_P2;Temp;Humidity;BMP_temperature;BMP_pressure;BME280_temperature;BME280_humidity;BME280_pressure;Samples;Min_cycle;Max_cycle;Signal;HPM_P1;HPM_P2
2022/04/10 00:02:26;;;;;;;3.53;3.23;;;;;;;0.36;100.00;96959.91;5024249;28;20226;-55
2022/04/10 00:04:55;;;;;;;5.03;4.53;;;;;;;0.26;100.00;96974.66;5018226;28;20311;-57
2022/04/10 00:07:24;;;;;;;2.87;2.67;;;;;;;0.17;100.00;96968.41;4994967;28;20465;-56
2022/04/10 00:09:52;;;;;;;2.87;2.67;;;;;;;0.08;100.00;96974.38;5017650;28;20228;-53
2022/04/10 00:12:21;;;;;;;3.40;3.10;;;;;;;0.08;100.00;96970.00;5013834;28;20648;-56
2022/04/10 00:14:49;;;;;;;5.60;3.07;;;;;;;0.09;100.00;96974.25;4993581;28;20299;-57
2022/04/10 00:17:17;;;;;;;2.50;2.40;;;;;;;0.22;100.00;96974.09;5028366;28;20306;-56
2022/04/10 00:19:46;;;;;;;4.03;2.83;;;;;;;0.21;100.00;96971.59;5014234;28;20211;-56
2022/04/10 00:22:14;;;;;;;3.23;3.03;;;;;;;0.22;100.00;96971.50;5012473;28;20263;-54
2022/04/10 00:24:45;;;;;;;3.23;3.00;;;;;;;0.36;100.00;96964.31;5017852;28;20281;-55
2022/04/10 00:27:14;;;;;;;4.70;3.90;;;;;;;0.54;100.00;96962.00;5018779;28;20303;-53
2022/04/10 00:29:42;;;;;;;3.80;3.50;;;;;;;0.75;100.00;96964.59;5023463;28;20883;-54
2022/04/10 00:32:10;;;;;;;5.40;2.97;;;;;;;0.66;100.00;96975.81;4991843;28;20229;-56
2022/04/10 00:34:39;;;;;;;4.30;3.20;;;;;;;0.62;100.00;96974.41;5027892;28;20859;-53
2022/04/10 00:37:07;;;;;;;3.03;2.80;;;;;;;0.82;100.00;96981.38;5017385;28;20315;-53
2022/04/10 00:39:35;;;;;;;3.50;3.20;;;;;;;0.80;100.00;96967.66;5001938;28;20360;-52
2022/04/10 00:42:06;;;;;;;4.50;3.17;;;;;;;0.85;100.00;96965.47;5015841;28;20309;-52
2022/04/10 00:44:34;;;;;;;3.60;3.30;;;;;;;0.89;100.00;96971.28;4983197;28;20692;-52
2022/04/10 00:47:03;;;;;;;3.87;3.50;;;;;;;0.84;100.00;96970.84;4986460;28;20219;-56
2022/04/10 00:49:31;;;;;;;3.27;3.03;;;;;;;0.89;100.00;96976.50;4999922;28;20824;-54
2022/04/10 00:52:00;;;;;;;2.83;2.67;;;;;;;0.84;100.00;96974.25;5012895;28;20237;-55
2022/04/10 00:54:30;;;;;;;3.77;3.00;;;;;;;0.84;100.00;96981.28;4987572;28;22828;-54
2022/04/10 00:57:00;;;;;;;3.23;3.00;;;;;;;0.97;100.00;96984.50;5008720;28;20227;-53
2022/04/10 00:59:30;;;;;;;7.60;3.17;;;;;;;0.96;100.00;96993.28;5026478;28;20477;-52
2022/04/10 01:01:58;;;;;;;3.57;3.20;;;;;;;1.02;100.00;96991.97;4991456;28;20406;-53
2022/04/10 01:04:42;;;;;;;2.97;2.77;;;;;;;1.00;100.00;96988.66;5028640;28;20212;-51
2022/04/10 01:07:12;;;;;;;3.10;2.90;;;;;;;0.89;100.00;96999.13;5011724;28;20227;-55
2022/04/10 01:09:40;;;;;;;5.33;3.60;;;;;;;0.61;100.00;96998.81;5010575;28;20228;-52
2022/04/10 01:12:10;;;;;;;4.00;3.63;;;;;;;0.48;100.00;97005.03;4984407;28;20939;-54
2022/04/10 01:14:40;;;;;;;4.67;3.30;;;;;;;0.34;100.00;97000.13;5028339;28;20212;-52
2022/04/10 01:17:09;;;;;;;3.43;3.13;;;;;;;0.19;100.00;97005.63;5003028;28;20236;-56
2022/04/10 01:19:39;;;;;;;4.50;4.10;;;;;;;0.12;100.00;97009.66;5019562;28;20204;-51
2022/04/10 01:22:08;;;;;;;4.40;4.07;;;;;;;-0.01;100.00;97008.03;5021365;28;20238;-53
2022/04/10 01:24:38;;;;;;;6.10;4.17;;;;;;;-0.04;100.00;97015.25;5021831;28;20602;-52
2022/04/10 01:27:07;;;;;;;3.87;3.57;;;;;;;0.03;100.00;97010.38;4991822;28;20219;-55
2022/04/10 01:29:35;;;;;;;3.83;3.60;;;;;;;-0.04;100.00;97003.06;5016411;28;20269;-58
2022/04/10 01:32:04;;;;;;;4.50;4.10;;;;;;;-0.08;100.00;96993.00;5000895;28;20237;-55
2022/04/10 01:34:33;;;;;;;4.77;4.37;;;;;;;0.06;100.00;97007.53;4996401;28;20270;-58
2022/04/10 01:37:05;;;;;;;4.60;3.93;;;;;;;0.02;100.00;96993.09;5024957;28;20204;-55
2022/04/10 01:39:34;;;;;;;4.57;4.27;;;;;;;-0.04;100.00;97004.81;4991061;28;20779;-55
2022/04/10 01:42:04;;;;;;;4.03;3.73;;;;;;;-0.24;100.00;97001.19;5001203;28;20308;-57
2022/04/10 01:44:40;;;;;;;5.00;4.53;;;;;;;-0.15;100.00;97006.50;4988842;28;20566;-56
2022/04/10 01:47:08;;;;;;;4.17;3.83;;;;;;;-0.03;100.00;97012.53;5001976;28;20231;-57
2022/04/10 01:49:37;;;;;;;4.23;3.90;;;;;;;-0.09;100.00;97012.19;4975539;28;20262;-55
2022/04/10 01:52:06;;;;;;;4.13;3.83;;;;;;;-0.23;100.00;96997.63;5019945;28;20220;-55
2022/04/10 01:54:34;;;;;;;4.17;3.87;;;;;;;-0.26;100.00;97005.69;5010716;28;20208;-58
2022/04/10 01:57:05;;;;;;;3.73;3.50;;;;;;;-0.40;100.00;96991.16;4993639;28;20687;-56
2022/04/10 01:59:33;;;;;;;5.17;4.77;;;;;;;-0.37;100.00;97004.75;5000897;28;20306;-56
2022/04/10 02:02:01;;;;;;;4.47;4.07;;;;;;;-0.42;100.00;97000.84;4997107;28;20754;-55
2022/04/10 02:04:30;;;;;;;4.43;4.03;;;;;;;-0.42;100.00;97004.28;4948079;28;21050;-56
2022/04/10 02:06:58;;;;;;;5.63;4.37;;;;;;;-0.42;100.00;97001.69;5021904;28;20557;-55
2022/04/10 02:09:26;;;;;;;4.23;3.93;;;;;;;-0.33;100.00;96989.75;5002171;28;20687;-56
2022/04/10 02:11:54;;;;;;;4.60;4.00;;;;;;;-0.41;100.00;96992.94;5026413;28;20230;-55
2022/04/10 02:14:23;;;;;;;4.80;4.30;;;;;;;-0.49;100.00;96990.09;4981864;28;20199;-56
2022/04/10 02:16:52;;;;;;;3.90;3.60;;;;;;;-0.54;100.00;96985.25;5000306;28;20208;-54
2022/04/10 02:19:20;;;;;;;4.40;4.00;;;;;;;-0.60;100.00;96998.75;5020430;28;20287;-57
2022/04/10 02:21:48;;;;;;;4.20;3.90;;;;;;;-0.63;100.00;96999.78;4975685;28;20241;-52
2022/04/10 02:24:16;;;;;;;8.73;4.40;;;;;;;-0.84;100.00;96984.06;5001349;28;20700;-57
2022/04/10 02:26:44;;;;;;;5.00;4.53;;;;;;;-0.98;100.00;97003.31;5024915;28;20462;-58
2022/04/10 02:29:12;;;;;;;5.17;4.67;;;;;;;-1.00;100.00;96997.38;4979200;28;20656;-56
2022/04/10 02:31:42;;;;;;;4.87;4.47;;;;;;;-0.92;100.00;96997.66;5001285;28;20219;-55
2022/04/10 02:34:10;;;;;;;5.33;4.83;;;;;;;-0.80;100.00;96997.66;5023071;28;20206;-54
2022/04/10 02:36:38;;;;;;;5.17;4.67;;;;;;;-0.65;100.00;96996.47;4969381;28;20208;-50
2022/04/10 02:39:07;;;;;;;5.10;4.70;;;;;;;-0.75;100.00;96993.78;5012346;28;20738;-49
2022/04/10 02:41:35;;;;;;;4.83;4.43;;;;;;;-0.85;100.00;96997.19;5021501;28;20306;-55
2022/04/10 02:44:03;;;;;;;4.60;4.30;;;;;;;-0.92;100.00;96996.81;4996536;28;20628;-55
2022/04/10 02:46:31;;;;;;;4.30;4.00;;;;;;;-1.02;100.00;97004.47;5013124;28;20417;-57
2022/04/10 02:49:01;;;;;;;4.47;4.07;;;;;;;-1.08;100.00;96997.16;4999050;28;20747;-54
2022/04/10 02:51:29;;;;;;;4.53;4.03;;;;;;;-1.20;100.00;96996.28;4972018;28;20805;-58
2022/04/10 02:53:57;;;;;;;5.20;4.00;;;;;;;-1.28;100.00;96999.47;5020935;28;20703;-55
2022/04/10 02:56:25;;;;;;;4.43;3.87;;;;;;;-1.26;100.00;96996.75;5006903;28;20410;-56
2022/04/10 02:58:53;;;;;;;5.93;4.33;;;;;;;-0.92;100.00;96999.44;5027278;28;20211;-55
2022/04/10 03:01:21;;;;;;;4.10;3.80;;;;;;;-0.93;100.00;97003.81;5005091;28;20483;-55
2022/04/10 03:03:51;;;;;;;4.43;4.13;;;;;;;-0.95;100.00;96999.66;4999910;28;20208;-52
2022/04/10 03:06:20;;;;;;;4.20;3.97;;;;;;;-1.12;100.00;97003.53;4998085;28;20756;-55
2022/04/10 03:08:49;;;;;;;4.97;4.57;;;;;;;-1.22;100.00;97008.56;4976438;28;20600;-52
2022/04/10 03:11:18;;;;;;;4.63;4.23;;;;;;;-1.36;100.00;97000.03;4999004;28;20224;-55
2022/04/10 03:13:46;;;;;;;5.17;4.87;;;;;;;-1.36;100.00;97007.84;5024763;28;20207;-51
2022/04/10 03:16:14;;;;;;;4.80;4.50;;;;;;;-1.35;100.00;97013.84;5002497;28;20397;-54
2022/04/10 03:18:42;;;;;;;5.07;4.77;;;;;;;-1.28;100.00;97012.47;4992120;28;20203;-57
2022/04/10 03:21:11;;;;;;;4.73;4.17;;;;;;;-1.35;100.00;97011.25;5023207;28;20330;-52
2022/04/10 03:23:40;;;;;;;5.33;4.83;;;;;;;-1.36;100.00;97001.81;4975544;28;20212;-55
2022/04/10 03:26:08;;;;;;;6.10;5.60;;;;;;;-1.25;100.00;97006.22;5003656;28;20469;-54
2022/04/10 03:28:37;;;;;;;4.87;4.47;;;;;;;-1.24;100.00;97010.47;5023760;28;20303;-57
2022/04/10 03:31:05;;;;;;;5.57;5.17;;;;;;;-1.25;100.00;97011.41;5022538;28;20888;-57
2022/04/10 03:33:33;;;;;;;4.93;4.43;;;;;;;-1.28;100.00;97014.25;4978707;28;20234;-56
2022/04/10 03:36:01;;;;;;;5.33;4.83;;;;;;;-1.21;100.00;97012.84;5013347;28;21097;-57
2022/04/10 03:38:29;;;;;;;4.37;4.00;;;;;;;-1.26;100.00;97010.59;4986032;28;20526;-56
2022/04/10 03:40:59;;;;;;;5.50;4.53;;;;;;;-1.33;100.00;97014.56;5031113;28;20203;-56
2022/04/10 03:43:27;;;;;;;5.37;4.83;;;;;;;-1.36;100.00;97014.78;5004731;28;20464;-56
2022/04/10 03:45:55;;;;;;;5.63;5.03;;;;;;;-1.39;100.00;97017.63;5029269;28;20207;-55
2022/04/10 03:48:23;;;;;;;7.03;4.30;;;;;;;-1.50;100.00;97023.63;5006144;28;20281;-58
2022/04/10 03:50:51;;;;;;;6.77;4.80;;;;;;;-1.55;100.00;97028.31;5028110;28;20310;-52
2022/04/10 03:53:20;;;;;;;6.43;4.73;;;;;;;-1.63;100.00;97024.50;4978261;28;20887;-58
2022/04/10 03:55:48;;;;;;;5.07;4.67;;;;;;;-1.70;100.00;97031.09;5030140;28;20343;-57
2022/04/10 03:58:18;;;;;;;5.10;4.73;;;;;;;-1.67;100.00;97030.06;5002260;28;20791;-58
2022/04/10 04:00:47;;;;;;;5.70;5.20;;;;;;;-1.76;100.00;97026.34;5023386;28;20303;-58
2022/04/10 04:03:15;;;;;;;5.57;5.17;;;;;;;-1.80;100.00;97028.31;5004193;28;20351;-56
2022/04/10 04:05:43;;;;;;;4.97;4.57;;;;;;;-1.90;100.00;97030.75;5028494;28;20231;-55
2022/04/10 04:08:12;;;;;;;4.97;4.57;;;;;;;-2.00;100.00;97041.91;4981401;28;20290;-55
2022/04/10 04:10:40;;;;;;;5.73;5.17;;;;;;;-2.01;100.00;97038.47;5021923;28;20204;-58
2022/04/10 04:13:08;;;;;;;4.83;4.53;;;;;;;-2.15;100.00;97030.84;5010260;28;20220;-57
2022/04/10 04:15:38;;;;;;;6.23;5.73;;;;;;;-2.15;100.00;97051.63;5025848;28;20626;-54
2022/04/10 04:18:07;;;;;;;4.87;4.57;;;;;;;-2.16;100.00;97050.75;5020250;28;20218;-57
2022/04/10 04:20:35;;;;;;;5.70;5.23;;;;;;;-1.98;100.00;97056.44;5022535;28;20286;-55
2022/04/10 04:23:03;;;;;;;5.00;4.63;;;;;;;-1.93;100.00;97063.91;5001852;28;20335;-56
2022/04/10 04:25:32;;;;;;;5.53;5.13;;;;;;;-1.87;100.00;97062.66;4967353;28;20936;-56
2022/04/10 04:28:00;;;;;;;6.03;5.57;;;;;;;-1.87;100.00;97068.66;5004145;28;20675;-53
2022/04/10 04:30:28;;;;;;;5.57;5.17;;;;;;;-1.73;100.00;97066.84;4959269;28;20208;-56
2022/04/10 04:32:58;;;;;;;7.50;6.83;;;;;;;-1.63;100.00;97075.66;5001504;28;20660;-57
2022/04/10 04:35:26;;;;;;;6.13;5.73;;;;;;;-1.48;100.00;97076.31;4986387;28;20213;-52
2022/04/10 04:37:55;;;;;;;7.27;6.57;;;;;;;-1.36;100.00;97079.78;5005542;28;20665;-53
2022/04/10 04:40:24;;;;;;;7.27;6.73;;;;;;;-1.29;100.00;97078.41;4956289;28;20632;-54
2022/04/10 04:42:52;;;;;;;8.77;6.40;;;;;;;-1.22;100.00;97078.78;5002151;28;20307;-53
2022/04/10 04:45:22;;;;;;;7.07;6.37;;;;;;;-1.15;100.00;97081.75;4986180;28;20406;-57
2022/04/10 04:47:50;;;;;;;5.37;4.97;;;;;;;-1.08;100.00;97085.56;4985376;28;20209;-55
2022/04/10 04:50:19;;;;;;;5.83;5.23;;;;;;;-1.03;100.00;97086.91;4992015;28;20313;-56
2022/04/10 04:52:47;;;;;;;5.83;5.33;;;;;;;-1.05;100.00;97090.53;5009065;28;20227;-55
2022/04/10 04:55:15;;;;;;;5.20;4.80;;;;;;;-1.03;100.00;97099.06;4961397;28;20521;-59
2022/04/10 04:57:44;;;;;;;6.70;6.20;;;;;;;-1.17;100.00;97098.31;5005805;28;20874;-59
2022/04/10 05:00:13;;;;;;;6.10;5.50;;;;;;;-1.19;100.00;97107.16;4991516;28;20208;-58
2022/04/10 05:02:41;;;;;;;7.17;5.17;;;;;;;-0.94;100.00;97108.81;4989291;28;20250;-58
2022/04/10 05:05:09;;;;;;;4.83;4.43;;;;;;;-0.96;100.00;97107.25;4989232;28;20873;-58
2022/04/10 05:07:39;;;;;;;5.50;5.00;;;;;;;-0.94;100.00;97108.81;5004752;28;20555;-56
2022/04/10 05:10:07;;;;;;;5.63;5.13;;;;;;;-1.00;100.00;97119.63;4963296;28;21654;-53
2022/04/10 05:12:35;;;;;;;5.33;4.83;;;;;;;-1.03;100.00;97122.47;5000283;28;20324;-55
2022/04/10 05:15:07;;;;;;;5.67;5.00;;;;;;;-0.93;100.00;97136.47;5006950;28;20779;-54
2022/04/10 05:17:36;;;;;;;5.23;4.83;;;;;;;-0.88;100.00;97138.72;4991973;28;20298;-56
2022/04/10 05:20:06;;;;;;;5.07;4.57;;;;;;;-0.92;100.00;97151.13;4978368;28;20689;-55
2022/04/10 05:22:35;;;;;;;6.03;5.53;;;;;;;-0.89;100.00;97145.69;5001801;28;20348;-57
2022/04/10 05:25:05;;;;;;;6.10;5.10;;;;;;;-0.88;100.00;97152.56;4968276;28;20572;-53
2022/04/10 05:27:33;;;;;;;8.63;4.90;;;;;;;-0.79;100.00;97161.44;5008764;28;20232;-58
2022/04/10 05:30:01;;;;;;;5.90;5.30;;;;;;;-0.53;100.00;97165.69;4997744;28;20629;-51
2022/04/10 05:32:29;;;;;;;6.37;5.77;;;;;;;-0.37;100.00;97165.38;4996891;28;20795;-57
2022/04/10 05:34:57;;;;;;;5.90;5.30;;;;;;;-0.30;100.00;97161.34;4984108;28;20218;-54
2022/04/10 05:37:26;;;;;;;5.90;5.40;;;;;;;-0.32;100.00;97171.06;5004039;28;20659;-54
2022/04/10 05:39:54;;;;;;;6.67;6.17;;;;;;;-0.17;100.00;97174.28;5002136;28;20207;-53
2022/04/10 05:42:23;;;;;;;7.03;5.90;;;;;;;-0.06;100.00;97176.03;4973409;28;20224;-53
2022/04/10 05:44:51;;;;;;;5.90;5.27;;;;;;;0.02;100.00;97175.44;5000122;28;20304;-59
2022/04/10 05:47:19;;;;;;;6.07;5.47;;;;;;;0.13;100.00;97183.25;5005335;28;20204;-54
2022/04/10 05:49:47;;;;;;;9.53;6.33;;;;;;;0.18;100.00;97188.13;4976241;28;20210;-57
2022/04/10 05:52:16;;;;;;;7.13;5.60;;;;;;;0.26;100.00;97186.59;4994207;28;20287;-59
2022/04/10 05:54:44;;;;;;;5.50;5.03;;;;;;;0.35;100.00;97192.84;4999839;28;20208;-54
2022/04/10 05:57:12;;;;;;;6.30;5.80;;;;;;;0.47;100.00;97190.25;4970176;28;20306;-53
2022/04/10 05:59:41;;;;;;;6.07;5.57;;;;;;;0.65;100.00;97194.00;5003850;28;20211;-56
2022/04/10 06:02:09;;;;;;;5.80;5.30;;;;;;;0.52;100.00;97193.34;5005268;28;21061;-57
2022/04/10 06:04:38;;;;;;;6.70;6.00;;;;;;;0.46;100.00;97194.63;4988278;28;20212;-56
2022/04/10 06:07:06;;;;;;;6.97;5.43;;;;;;;0.54;100.00;97197.47;4990811;28;20209;-56
2022/04/10 06:09:34;;;;;;;5.53;5.13;;;;;;;0.60;100.00;97200.56;4989377;28;20305;-54
2022/04/10 06:12:02;;;;;;;6.70;5.30;;;;;;;0.77;100.00;97207.88;5006013;28;20287;-54
2022/04/10 06:14:31;;;;;;;6.67;6.03;;;;;;;1.09;100.00;97203.63;4942515;28;20417;-59
2022/04/10 06:17:00;;;;;;;7.97;5.93;;;;;;;1.39;100.00;97205.53;4991232;28;20212;-56
2022/04/10 06:19:28;;;;;;;8.13;5.63;;;;;;;1.71;100.00;97216.91;4985834;28;20218;-59
2022/04/10 06:21:56;;;;;;;6.13;5.40;;;;;;;1.80;100.00;97215.31;4993310;28;20250;-57
2022/04/10 06:24:27;;;;;;;5.83;5.23;;;;;;;1.75;100.00;97210.47;5000866;28;20236;-58
2022/04/10 06:26:56;;;;;;;5.77;5.27;;;;;;;1.87;100.00;97206.81;4980664;28;20306;-55
2022/04/10 06:29:24;;;;;;;8.50;5.90;;;;;;;2.02;100.00;97217.75;4957297;28;20220;-57
2022/04/10 06:31:52;;;;;;;5.90;5.40;;;;;;;2.38;100.00;97217.41;4967206;28;20248;-52
2022/04/10 06:34:22;;;;;;;6.43;5.10;;;;;;;2.95;100.00;97222.09;4983523;28;20641;-56
2022/04/10 06:36:50;;;;;;;5.70;4.93;;;;;;;4.27;100.00;97223.41;4975154;28;20212;-55
2022/04/10 06:39:18;;;;;;;5.50;5.10;;;;;;;4.52;100.00;97215.88;5003584;28;20216;-55
2022/04/10 06:41:46;;;;;;;6.17;4.77;;;;;;;5.22;100.00;97219.75;4985844;28;20251;-56
2022/04/10 06:44:15;;;;;;;4.57;4.17;;;;;;;5.79;100.00;97224.69;4968847;28;20208;-54
2022/04/10 06:46:43;;;;;;;5.03;4.60;;;;;;;5.85;100.00;97217.16;4993306;28;20216;-54
2022/04/10 06:49:12;;;;;;;6.20;4.17;;;;;;;4.48;100.00;97217.13;5002666;28;20265;-55
2022/04/10 06:51:41;;;;;;;3.77;3.40;;;;;;;3.40;100.00;97233.88;4980425;28;20683;-49
2022/04/10 06:54:10;;;;;;;5.13;3.80;;;;;;;3.41;100.00;97225.06;4999471;28;20406;-54
2022/04/10 06:56:38;;;;;;;5.60;3.43;;;;;;;3.32;100.00;97228.50;5001446;28;20207;-55
2022/04/10 06:59:06;;;;;;;4.73;3.60;;;;;;;3.07;100.00;97233.28;4939973;28;20632;-57
2022/04/10 07:01:34;;;;;;;4.60;3.27;;;;;;;2.62;100.00;97236.34;5003799;28;21144;-48
2022/04/10 07:04:05;;;;;;;5.20;4.30;;;;;;;2.90;100.00;97237.38;4986926;28;21040;-55
2022/04/10 07:06:34;;;;;;;5.93;3.53;;;;;;;2.95;100.00;97242.22;4986161;28;20215;-54
2022/04/10 07:09:03;;;;;;;3.90;3.60;;;;;;;3.24;100.00;97244.88;4993260;28;20216;-55
2022/04/10 07:11:32;;;;;;;4.20;3.80;;;;;;;3.22;100.00;97243.34;5004201;28;20291;-52
2022/04/10 07:14:01;;;;;;;3.90;3.70;;;;;;;3.03;100.00;97253.69;5009008;28;20363;-59
2022/04/10 07:16:29;;;;;;;6.80;3.67;;;;;;;2.72;100.00;97256.34;4962359;28;20220;-52
2022/04/10 07:18:57;;;;;;;4.10;3.77;;;;;;;2.30;100.00;97249.44;5008877;28;20359;-54
2022/04/10 07:24:09;;;;;;;5.73;3.70;;;;;;;2.38;100.00;97255.78;4981843;28;20549;-54
2022/04/10 07:26:37;;;;;;;6.90;4.55;;;;;;;2.35;100.00;97254.28;4999779;28;20476;-53
2022/04/10 07:29:06;;;;;;;5.10;3.77;;;;;;;2.39;100.00;97260.91;5005307;28;20351;-55
2022/04/10 07:31:34;;;;;;;4.23;3.83;;;;;;;2.14;100.00;97249.06;4977627;28;20216;-53
2022/04/10 07:34:03;;;;;;;4.65;4.25;;;;;;;2.00;100.00;97261.50;5007282;28;20460;-56
2022/04/10 07:36:32;;;;;;;3.90;3.60;;;;;;;2.50;100.00;97267.00;5005243;28;20216;-57
2022/04/10 07:39:00;;;;;;;4.83;3.83;;;;;;;2.71;100.00;97253.84;4997368;28;20295;-56
2022/04/10 07:41:30;;;;;;;3.97;3.67;;;;;;;3.19;100.00;97257.56;4992297;28;20249;-54
2022/04/10 07:43:58;;;;;;;4.63;3.40;;;;;;;3.03;100.00;97260.69;5009233;28;20240;-58
2022/04/10 07:49:12;;;;;;;4.50;3.73;;;;;;;3.16;100.00;97260.47;4969077;28;20341;-57
2022/04/10 07:51:40;;;;;;;3.57;3.23;;;;;;;2.93;100.00;97263.28;4986467;28;20330;-52
2022/04/10 07:54:08;;;;;;;3.13;2.93;;;;;;;2.68;100.00;97264.59;4974985;28;21040;-57
2022/04/10 07:56:38;;;;;;;4.63;2.93;;;;;;;2.41;100.00;97265.97;4989274;28;20391;-57
2022/04/10 07:59:06;;;;;;;4.53;3.13;;;;;;;2.31;100.00;97268.56;5004773;28;20196;-55
2022/04/10 08:01:34;;;;;;;3.53;2.50;;;;;;;2.85;100.00;97269.22;4991820;28;20216;-57
2022/04/10 08:04:03;;;;;;;4.20;3.20;;;;;;;3.34;100.00;97271.09;4969310;28;20209;-57
2022/04/10 08:06:31;;;;;;;2.73;2.40;;;;;;;3.48;100.00;97264.63;5010234;28;20298;-57
2022/04/10 08:08:59;;;;;;;4.30;3.37;;;;;;;3.84;100.00;97271.94;4986471;28;20215;-59
2022/04/10 08:11:28;;;;;;;4.17;3.47;;;;;;;4.08;100.00;97279.34;4982847;28;20299;-58
2022/04/10 08:13:57;;;;;;;3.13;2.80;;;;;;;3.57;100.00;97274.28;4998750;28;20232;-53
2022/04/10 08:16:25;;;;;;;2.60;2.40;;;;;;;3.55;100.00;97275.38;5010987;28;20296;-59
2022/04/10 08:18:54;;;;;;;3.03;2.83;;;;;;;3.72;100.00;97293.03;4967966;28;20583;-53
2022/04/10 08:21:22;;;;;;;2.93;2.73;;;;;;;3.93;100.00;97284.19;5008252;28;20256;-58
2022/04/10 08:23:50;;;;;;;4.10;2.93;;;;;;;4.29;100.00;97283.59;5007261;28;20200;-55
2022/04/10 08:26:18;;;;;;;3.90;2.70;;;;;;;4.88;100.00;97284.22;4989658;28;20299;-59
2022/04/10 08:28:46;;;;;;;2.50;2.30;;;;;;;4.99;100.00;97291.09;4996505;28;20220;-53
2022/04/10 08:31:16;;;;;;;3.60;3.27;;;;;;;4.33;100.00;97309.41;5007845;28;20201;-59
2022/04/10 08:33:44;;;;;;;4.10;2.73;;;;;;;4.39;100.00;97307.19;4963064;28;20310;-57
2022/04/10 08:36:13;;;;;;;2.40;2.30;;;;;;;4.36;100.00;97295.19;5000250;28;20204;-56
2022/04/10 08:38:41;;;;;;;5.37;2.50;;;;;;;4.44;100.00;97307.59;4992134;28;20226;-55
2022/04/10 08:41:09;;;;;;;4.37;2.60;;;;;;;4.95;100.00;97300.25;4986596;28;20395;-54
2022/04/10 08:43:37;;;;;;;2.77;2.60;;;;;;;5.40;100.00;97306.47;4991689;28;20343;-55
2022/04/10 08:46:07;;;;;;;3.00;2.70;;;;;;;5.19;100.00;97312.81;5006796;28;20205;-59
2022/04/10 08:48:37;;;;;;;3.60;2.90;;;;;;;5.00;100.00;97303.25;4970144;28;20307;-56
2022/04/10 08:51:09;;;;;;;2.73;2.53;;;;;;;5.01;100.00;97307.53;5005084;28;20208;-57
2022/04/10 08:53:38;;;;;;;2.27;2.17;;;;;;;4.74;100.00;97317.03;4987339;28;20231;-54
2022/04/10 08:56:07;;;;;;;3.07;2.43;;;;;;;4.50;100.00;97314.91;5007042;28;21515;-58
2022/04/10 08:58:36;;;;;;;6.60;2.80;;;;;;;4.43;100.00;97305.94;4970613;28;20231;-54
2022/04/10 09:01:04;;;;;;;2.90;2.63;;;;;;;4.25;100.00;97313.72;5005452;28;20200;-55
2022/04/10 09:03:32;;;;;;;2.37;2.17;;;;;;;4.37;100.00;97303.88;4986635;28;20868;-55
2022/04/10 09:06:06;;;;;;;2.60;2.40;;;;;;;4.58;100.00;97324.69;4984978;28;20704;-55
2022/04/10 09:08:34;;;;;;;4.57;2.20;;;;;;;5.11;81.29;97315.34;4990319;28;20325;-53
2022/04/10 09:11:04;;;;;;;1.90;1.73;;;;;;;5.42;81.76;97312.41;5005383;28;20369;-57
2022/04/10 09:13:33;;;;;;;2.50;2.30;;;;;;;5.87;80.46;97318.59;4982689;28;20459;-54
2022/04/10 09:16:13;;;;;;;1.97;1.87;;;;;;;5.85;69.59;97306.56;4995719;28;20215;-53
2022/04/10 09:18:47;;;;;;;2.70;2.35;;;;;;;5.62;72.10;97317.53;5001687;28;20826;-52
2022/04/10 09:21:18;;;;;;;3.77;2.53;;;;;;;5.49;81.51;97324.00;4962440;28;20351;-54
2022/04/10 09:23:53;;;;;;;2.67;2.08;;;;;;;5.19;81.58;97325.97;5003344;28;20633;-57
2022/04/10 09:26:22;;;;;;;2.13;1.98;;;;;;;4.85;83.33;97329.16;5003137;28;20492;-53
2022/04/10 09:28:51;;;;;;;1.80;1.67;;;;;;;4.74;59.46;97329.34;4984410;28;20895;-57
2022/04/10 09:31:31;;;;;;;4.57;2.03;;;;;;;4.62;64.40;97329.50;4990164;28;20307;-54
2022/04/10 09:34:02;;;;;;;1.97;1.77;;;;;;;4.80;60.15;97323.50;5000655;28;20239;-58
2022/04/10 09:36:43;;;;;;;3.10;1.67;;;;;;;5.03;56.54;97317.88;4961246;28;20682;-55
2022/04/10 09:39:13;;;;;;;1.92;1.80;;;;;;;5.15;57.45;97318.50;5001686;28;20564;-56
2022/04/10 09:41:44;;;;;;;2.22;2.13;;;;;;;5.22;58.71;97323.03;4985520;28;20449;-55
2022/04/10 09:44:17;;;;;;;3.17;2.13;;;;;;;5.21;59.00;97315.28;4993371;28;20212;-56
2022/04/10 09:46:57;;;;;;;1.90;1.80;;;;;;;5.18;72.57;97311.19;4988103;28;20208;-56
2022/04/10 09:49:25;;;;;;;1.93;1.50;;;;;;;5.13;64.27;97313.41;5006156;28;20207;-54
2022/04/10 09:52:03;;;;;;;1.80;1.47;;;;;;;5.16;55.69;97314.91;4974229;28;20852;-54
2022/04/10 09:54:39;;;;;;;1.63;1.53;;;;;;;4.89;53.37;97313.91;5002366;28;20239;-55
2022/04/10 09:57:11;;;;;;;1.67;1.58;;;;;;;4.88;54.55;97317.50;4998718;28;20457;-53
2022/04/10 09:59:42;;;;;;;2.17;1.97;;;;;;;5.21;53.01;97307.41;4963105;28;20569;-56
2022/04/10 10:02:12;;;;;;;2.13;1.80;;;;;;;5.73;56.49;97312.06;4986859;28;20331;-55
2022/04/10 10:04:41;;;;;;;2.13;1.93;;;;;;;5.80;54.04;97315.72;4983038;28;20208;-59
2022/04/10 10:07:12;;;;;;;3.47;2.00;;;;;;;5.54;56.97;97309.59;4952957;28;21005;-53
2022/04/10 10:09:40;;;;;;;2.03;1.93;;;;;;;5.51;57.87;97310.69;5006126;28;20212;-56
2022/04/10 10:12:10;;;;;;;1.57;1.53;;;;;;;5.64;58.10;97297.19;4998843;28;20427;-55
2022/04/10 10:14:39;;;;;;;1.90;1.50;;;;;;;5.75;58.93;97311.91;5001819;28;20319;-50
2022/04/10 10:17:08;;;;;;;1.60;1.30;;;;;;;5.62;55.06;97312.28;4971607;28;20440;-54
2022/04/10 10:19:39;;;;;;;1.57;1.30;;;;;;;5.57;54.92;97311.91;5004435;28;20242;-52
2022/04/10 10:22:08;;;;;;;1.90;1.80;;;;;;;5.89;57.13;97302.69;4960088;28;20227;-54
2022/04/10 10:24:45;;;;;;;1.50;1.40;;;;;;;6.25;52.83;97302.66;5005256;28;21098;-54
2022/04/10 10:27:29;;;;;;;2.73;2.23;;;;;;;6.17;53.52;97299.94;5004261;28;20196;-53
2022/04/10 10:30:20;;;;;;;1.20;1.10;;;;;;;6.85;51.78;97300.22;4996988;28;20584;-55
2022/04/10 10:32:50;;;;;;;1.43;1.33;;;;;;;6.68;51.24;97296.69;4993330;28;20819;-51
2022/04/10 10:35:33;;;;;;;1.77;1.67;;;;;;;6.57;50.78;97298.56;4998541;28;20216;-56
2022/04/10 10:38:01;;;;;;;3.37;2.17;;;;;;;6.88;51.43;97298.09;4956025;28;20801;-54
2022/04/10 10:40:31;;;;;;;1.40;1.30;;;;;;;6.55;50.51;97305.00;5000662;28;20224;-54
2022/04/10 10:43:00;;;;;;;1.43;1.20;;;;;;;6.62;50.09;97293.66;5004355;28;20903;-59
2022/04/10 10:45:33;;;;;;;1.80;1.60;;;;;;;6.23;51.14;97291.44;5001093;28;20215;-58
2022/04/10 10:48:42;;;;;;;3.57;2.10;;;;;;;6.49;53.55;97302.00;4969958;28;20453;-54
2022/04/10 10:51:44;;;;;;;5.33;4.93;;;;;;;6.18;51.75;97299.81;4995856;28;20219;-56
2022/04/10 10:54:14;;;;;;;5.60;5.10;;;;;;;6.51;53.36;97300.03;4898250;28;20248;-53
2022/04/10 10:56:46;;;;;;;1.67;1.40;;;;;;;6.97;51.84;97295.47;4944230;28;20384;-57
2022/04/10 10:59:23;;;;;;;4.63;4.33;;;;;;;7.65;50.65;97284.00;4945721;28;20198;-57
2022/04/10 11:01:56;;;;;;;6.60;5.50;;;;;;;7.57;50.16;97289.22;4927080;28;20698;-55
2022/04/10 11:04:28;;;;;;;32.00;28.97;;;;;;;7.49;50.51;97289.22;4937856;28;20230;-59
2022/04/10 11:07:11;;;;;;;3.70;2.23;;;;;;;7.22;49.09;97291.97;4942285;28;22184;-55
2022/04/10 11:09:53;;;;;;;2.00;1.67;;;;;;;6.89;50.84;97296.28;4912354;28;20213;-53
2022/04/10 11:12:26;;;;;;;6.10;5.57;;;;;;;6.84;52.62;97285.41;4938005;28;20218;-58
2022/04/10 11:14:56;;;;;;;22.57;19.70;;;;;;;6.64;52.68;97289.09;4927846;28;20836;-56
2022/04/10 11:17:28;;;;;;;4.13;3.30;;;;;;;6.81;51.93;97297.06;4925968;28;20214;-53
2022/04/10 11:19:59;;;;;;;3.40;1.93;;;;;;;6.48;51.84;97291.63;4911697;28;20239;-56
2022/04/10 11:22:34;;;;;;;4.83;4.10;;;;;;;6.59;52.03;97301.88;4943277;28;20822;-59
2022/04/10 11:25:06;;;;;;;5.07;4.57;;;;;;;6.87;54.01;97296.44;4902897;28;20201;-56
2022/04/10 11:27:44;;;;;;;2.70;2.07;;;;;;;7.10;52.87;97296.69;4947812;28;20226;-60
2022/04/10 11:30:14;;;;;;;1.70;1.60;;;;;;;7.73;52.29;97293.72;4988760;28;23638;-57
2022/04/10 11:32:46;;;;;;;2.47;1.70;;;;;;;7.79;50.88;97293.06;4990845;28;20235;-56
2022/04/10 11:35:16;;;;;;;2.70;2.50;;;;;;;7.04;50.32;97293.88;4988972;28;20221;-55
2022/04/10 11:37:47;;;;;;;1.60;1.47;;;;;;;6.64;53.05;97294.34;5001664;28;20589;-59
2022/04/10 11:40:19;;;;;;;1.70;1.60;;;;;;;6.39;54.03;97295.19;4953839;28;20225;-55
2022/04/10 11:42:49;;;;;;;1.80;1.70;;;;;;;6.65;52.93;97288.09;5001178;28;20229;-58
2022/04/10 11:45:19;;;;;;;2.23;1.97;;;;;;;7.30;49.19;97290.31;5003172;28;20279;-58
2022/04/10 11:47:48;;;;;;;1.80;1.47;;;;;;;8.02;47.63;97291.59;4999823;28;20267;-59
2022/04/10 11:50:16;;;;;;;1.87;1.73;;;;;;;8.34;45.42;97290.75;4986946;28;20205;-57